sensor_id;sensor_type;location;lat;lon;timestamp;P1;durP1;ratioP1;P2;durP2;ratioP2
61272;SDS011;47150;53.032;8.960;2023-04-01T00:00:19;0.17;;;0.17;;
61272;SDS011;47150;53.032;8.960;2023-04-01T00:02:45;0.10;;;0.10;;
61272;SDS011;47150;53.032;8.960;2023-04-01T00:05:11;0.20;;;0.20;;
61272;SDS011;47150;53.032;8.960;2023-04-01T00:07:40;0.10;;;0.10;;
61272;SDS011;47150;53.032;8.960;2023-04-01T00:10:06;0.10;;;0.10;;
61272;SDS011;47150;53.032;8.960;2023-04-01T00:12:33;0.17;;;0.17;;
61272;SDS011;47150;53.032;8.960;2023-04-01T00:14:59;0.10;;;0.10;;
61272;SDS011;47150;53.032;8.960;2023-04-01T00:17:25;0.10;;;0.10;;
61272;SDS011;47150;53.032;8.960;2023-04-01T00:19:51;0.10;;;0.10;;
61272;SDS011;47150;53.032;8.960;2023-04-01T00:22:16;0.10;;;0.10;;
61272;SDS011;47150;53.032;8.960;2023-04-01T00:24:42;0.20;;;0.20;;
61272;SDS011;47150;53.032;8.960;2023-04-01T00:27:07;0.70;;;0.70;;
61272;SDS011;47150;53.032;8.960;2023-04-01T00:29:33;0.10;;;0.10;;
61272;SDS011;47150;53.032;8.960;2023-04-01T00:31:59;0.10;;;0.10;;
61272;SDS011;47150;53.032;8.960;2023-04-01T00:34:25;0.10;;;0.10;;
61272;SDS011;47150;53.032;8.960;2023-04-01T00:36:51;0.20;;;0.20;;
61272;SDS011;47150;53.032;8.960;2023-04-01T00:39:20;0.60;;;0.60;;
61272;SDS011;47150;53.032;8.960;2023-04-01T00:41:46;0.23;;;0.23;;
61272;SDS011;47150;53.032;8.960;2023-04-01T00:44:17;0.10;;;0.10;;
61272;SDS011;47150;53.032;8.960;2023-04-01T00:46:47;0.27;;;0.27;;
61272;SDS011;47150;53.032;8.960;2023-04-01T00:49:13;0.10;;;0.10;;
61272;SDS011;47150;53.032;8.960;2023-04-01T00:51:41;0.10;;;0.10;;
61272;SDS011;47150;53.032;8.960;2023-04-01T00:54:08;0.10;;;0.10;;
61272;SDS011;47150;53.032;8.960;2023-04-01T00:56:35;2.77;;;1.47;;
61272;SDS011;47150;53.032;8.960;2023-04-01T00:59:10;1.80;;;0.83;;
61272;SDS011;47150;53.032;8.960;2023-04-01T01:01:39;0.10;;;0.10;;
61272;SDS011;47150;53.032;8.960;2023-04-01T01:04:05;0.33;;;0.33;;
61272;SDS011;47150;53.032;8.960;2023-04-01T01:14:44;0.10;;;0.10;;
61272;SDS011;47150;53.032;8.960;2023-04-01T01:31:02;0.10;;;0.10;;
61272;SDS011;47150;53.032;8.960;2023-04-01T01:36:23;0.10;;;0.10;;
61272;SDS011;47150;53.032;8.960;2023-04-01T01:38:53;0.30;;;0.30;;
61272;SDS011;47150;53.032;8.960;2023-04-01T01:41:20;0.20;;;0.20;;
61272;SDS011;47150;53.032;8.960;2023-04-01T01:43:48;0.10;;;0.10;;
61272;SDS011;47150;53.032;8.960;2023-04-01T01:46:19;0.10;;;0.10;;
61272;SDS011;47150;53.032;8.960;2023-04-01T01:48:47;0.10;;;0.10;;
61272;SDS011;47150;53.032;8.960;2023-04-01T01:51:15;0.20;;;0.20;;
61272;SDS011;47150;53.032;8.960;2023-04-01T01:53:43;0.10;;;0.10;;
61272;SDS011;47150;53.032;8.960;2023-04-01T01:56:09;0.40;;;0.40;;
61272;SDS011;47150;53.032;8.960;2023-04-01T01:58:42;0.30;;;0.30;;
61272;SDS011;47150;53.032;8.960;2023-04-01T02:01:11;0.10;;;0.10;;
61272;SDS011;47150;53.032;8.960;2023-04-01T02:03:40;0.10;;;0.10;;
61272;SDS011;47150;53.032;8.960;2023-04-01T02:06:08;0.10;;;0.10;;
61272;SDS011;47150;53.032;8.960;2023-04-01T02:08:41;0.10;;;0.10;;
61272;SDS011;47150;53.032;8.960;2023-04-01T02:11:12;0.10;;;0.10;;
61272;SDS011;47150;53.032;8.960;2023-04-01T02:13:45;0.10;;;0.10;;
61272;SDS011;47150;53.032;8.960;2023-04-01T02:16:49;0.10;;;0.10;;
61272;SDS011;47150;53.032;8.960;2023-04-01T02:19:12;0.10;;;0.10;;
61272;SDS011;47150;53.032;8.960;2023-04-01T02:21:40;0.20;;;0.20;;
61272;SDS011;47150;53.032;8.960;2023-04-01T02:24:09;0.30;;;0.30;;
61272;SDS011;47150;53.032;8.960;2023-04-01T02:26:39;0.10;;;0.10;;
61272;SDS011;47150;53.032;8.960;2023-04-01T02:29:06;0.10;;;0.10;;
61272;SDS011;47150;53.032;8.960;2023-04-01T02:31:34;0.10;;;0.10;;
61272;SDS011;47150;53.032;8.960;2023-04-01T02:34:00;0.10;;;0.10;;
61272;SDS011;47150;53.032;8.960;2023-04-01T02:36:27;0.10;;;0.10;;
61272;SDS011;47150;53.032;8.960;2023-04-01T02:38:52;0.10;;;0.10;;
61272;SDS011;47150;53.032;8.960;2023-04-01T02:41:21;0.10;;;0.10;;
61272;SDS011;47150;53.032;8.960;2023-04-01T02:43:46;0.10;;;0.10;;
61272;SDS011;47150;53.032;8.960;2023-04-01T02:46:11;0.10;;;0.10;;
61272;SDS011;47150;53.032;8.960;2023-04-01T02:48:37;0.93;;;0.50;;
61272;SDS011;47150;53.032;8.960;2023-04-01T02:51:02;0.10;;;0.10;;
61272;SDS011;47150;53.032;8.960;2023-04-01T02:53:28;0.20;;;0.20;;
61272;SDS011;47150;53.032;8.960;2023-04-01T02:55:54;0.10;;;0.10;;
61272;SDS011;47150;53.032;8.960;2023-04-01T02:58:20;1.13;;;1.03;;
61272;SDS011;47150;53.032;8.960;2023-04-01T03:00:46;0.10;;;0.10;;
61272;SDS011;47150;53.032;8.960;2023-04-01T03:03:13;0.13;;;0.13;;
61272;SDS011;47150;53.032;8.960;2023-04-01T03:05:39;0.10;;;0.10;;
61272;SDS011;47150;53.032;8.960;2023-04-01T03:08:04;0.10;;;0.10;;
61272;SDS011;47150;53.032;8.960;2023-04-01T03:10:30;0.10;;;0.10;;
61272;SDS011;47150;53.032;8.960;2023-04-01T03:12:55;0.10;;;0.10;;
61272;SDS011;47150;53.032;8.960;2023-04-01T03:15:21;0.10;;;0.10;;
61272;SDS011;47150;53.032;8.960;2023-04-01T03:17:46;0.10;;;0.10;;
61272;SDS011;47150;53.032;8.960;2023-04-01T03:20:12;0.10;;;0.10;;
61272;SDS011;47150;53.032;8.960;2023-04-01T03:22:38;0.10;;;0.10;;
61272;SDS011;47150;53.032;8.960;2023-04-01T03:25:05;0.10;;;0.10;;
61272;SDS011;47150;53.032;8.960;2023-04-01T03:27:32;0.10;;;0.10;;
61272;SDS011;47150;53.032;8.960;2023-04-01T03:29:59;0.20;;;0.20;;
61272;SDS011;47150;53.032;8.960;2023-04-01T03:32:25;0.10;;;0.10;;
61272;SDS011;47150;53.032;8.960;2023-04-01T03:34:50;0.10;;;0.10;;
61272;SDS011;47150;53.032;8.960;2023-04-01T03:37:15;0.10;;;0.10;;
61272;SDS011;47150;53.032;8.960;2023-04-01T03:39:41;0.10;;;0.10;;
61272;SDS011;47150;53.032;8.960;2023-04-01T03:42:06;0.40;;;0.40;;
61272;SDS011;47150;53.032;8.960;2023-04-01T03:44:33;0.10;;;0.10;;
61272;SDS011;47150;53.032;8.960;2023-04-01T03:46:58;0.10;;;0.10;;
61272;SDS011;47150;53.032;8.960;2023-04-01T03:49:24;0.10;;;0.10;;
61272;SDS011;47150;53.032;8.960;2023-04-01T03:51:50;0.10;;;0.10;;
61272;SDS011;47150;53.032;8.960;2023-04-01T03:54:15;0.10;;;0.10;;
61272;SDS011;47150;53.032;8.960;2023-04-01T03:56:41;0.10;;;0.10;;
61272;SDS011;47150;53.032;8.960;2023-04-01T03:59:07;0.10;;;0.10;;
61272;SDS011;47150;53.032;8.960;2023-04-01T04:01:32;0.10;;;0.10;;
61272;SDS011;47150;53.032;8.960;2023-04-01T04:03:58;0.10;;;0.10;;
61272;SDS011;47150;53.032;8.960;2023-04-01T04:06:25;0.10;;;0.10;;
61272;SDS011;47150;53.032;8.960;2023-04-01T04:08:51;0.10;;;0.10;;
61272;SDS011;47150;53.032;8.960;2023-04-01T04:11:16;0.53;;;0.53;;
61272;SDS011;47150;53.032;8.960;2023-04-01T04:13:42;0.10;;;0.10;;
61272;SDS011;47150;53.032;8.960;2023-04-01T04:16:08;0.10;;;0.10;;
61272;SDS011;47150;53.032;8.960;2023-04-01T04:18:35;0.13;;;0.13;;
61272;SDS011;47150;53.032;8.960;2023-04-01T04:21:01;0.20;;;0.20;;
61272;SDS011;47150;53.032;8.960;2023-04-01T04:23:26;0.10;;;0.10;;
61272;SDS011;47150;53.032;8.960;2023-04-01T04:25:58;0.20;;;0.20;;
61272;SDS011;47150;53.032;8.960;2023-04-01T04:28:29;0.10;;;0.10;;
61272;SDS011;47150;53.032;8.960;2023-04-01T04:30:55;0.10;;;0.10;;
61272;SDS011;47150;53.032;8.960;2023-04-01T04:33:21;2.63;;;0.67;;
61272;SDS011;47150;53.032;8.960;2023-04-01T04:35:47;0.10;;;0.10;;
61272;SDS011;47150;53.032;8.960;2023-04-01T04:38:13;0.17;;;0.17;;
61272;SDS011;47150;53.032;8.960;2023-04-01T04:40:39;0.10;;;0.10;;
61272;SDS011;47150;53.032;8.960;2023-04-01T04:43:06;0.10;;;0.10;;
61272;SDS011;47150;53.032;8.960;2023-04-01T04:45:32;0.10;;;0.10;;
61272;SDS011;47150;53.032;8.960;2023-04-01T04:47:57;3.13;;;1.40;;
61272;SDS011;47150;53.032;8.960;2023-04-01T04:50:23;0.10;;;0.10;;
61272;SDS011;47150;53.032;8.960;2023-04-01T04:52:49;0.10;;;0.10;;
61272;SDS011;47150;53.032;8.960;2023-04-01T04:55:15;0.90;;;0.90;;
61272;SDS011;47150;53.032;8.960;2023-04-01T04:57:40;0.10;;;0.10;;
61272;SDS011;47150;53.032;8.960;2023-04-01T05:00:06;0.20;;;0.20;;
61272;SDS011;47150;53.032;8.960;2023-04-01T05:02:33;0.10;;;0.10;;
61272;SDS011;47150;53.032;8.960;2023-04-01T05:04:58;0.20;;;0.20;;
61272;SDS011;47150;53.032;8.960;2023-04-01T05:07:24;0.10;;;0.10;;
61272;SDS011;47150;53.032;8.960;2023-04-01T05:09:49;0.47;;;0.47;;
61272;SDS011;47150;53.032;8.960;2023-04-01T05:12:15;0.10;;;0.10;;
61272;SDS011;47150;53.032;8.960;2023-04-01T05:14:40;0.10;;;0.10;;
61272;SDS011;47150;53.032;8.960;2023-04-01T05:17:09;0.10;;;0.10;;
61272;SDS011;47150;53.032;8.960;2023-04-01T05:19:36;0.40;;;0.40;;
61272;SDS011;47150;53.032;8.960;2023-04-01T05:22:02;0.10;;;0.10;;
61272;SDS011;47150;53.032;8.960;2023-04-01T05:24:27;0.10;;;0.10;;
61272;SDS011;47150;53.032;8.960;2023-04-01T05:26:53;0.10;;;0.10;;
61272;SDS011;47150;53.032;8.960;2023-04-01T05:29:18;0.20;;;0.20;;
61272;SDS011;47150;53.032;8.960;2023-04-01T05:31:43;0.13;;;0.13;;
61272;SDS011;47150;53.032;8.960;2023-04-01T05:34:09;0.10;;;0.10;;
61272;SDS011;47150;53.032;8.960;2023-04-01T05:36:35;0.30;;;0.30;;
61272;SDS011;47150;53.032;8.960;2023-04-01T05:39:01;0.10;;;0.10;;
61272;SDS011;47150;53.032;8.960;2023-04-01T05:41:26;0.10;;;0.10;;
61272;SDS011;47150;53.032;8.960;2023-04-01T05:43:52;0.10;;;0.10;;
61272;SDS011;47150;53.032;8.960;2023-04-01T05:46:17;0.10;;;0.10;;
61272;SDS011;47150;53.032;8.960;2023-04-01T05:48:42;0.10;;;0.10;;
61272;SDS011;47150;53.032;8.960;2023-04-01T05:51:14;0.10;;;0.10;;
61272;SDS011;47150;53.032;8.960;2023-04-01T05:53:40;0.10;;;0.10;;
61272;SDS011;47150;53.032;8.960;2023-04-01T05:56:06;0.10;;;0.10;;
61272;SDS011;47150;53.032;8.960;2023-04-01T05:58:34;0.10;;;0.10;;
61272;SDS011;47150;53.032;8.960;2023-04-01T06:01:10;0.10;;;0.10;;
61272;SDS011;47150;53.032;8.960;2023-04-01T06:03:36;0.20;;;0.20;;
61272;SDS011;47150;53.032;8.960;2023-04-01T06:06:02;0.10;;;0.10;;
61272;SDS011;47150;53.032;8.960;2023-04-01T06:08:29;0.10;;;0.10;;
61272;SDS011;47150;53.032;8.960;2023-04-01T06:19:28;0.10;;;0.10;;
61272;SDS011;47150;53.032;8.960;2023-04-01T06:30:43;0.10;;;0.10;;
61272;SDS011;47150;53.032;8.960;2023-04-01T06:36:27;0.20;;;0.20;;
61272;SDS011;47150;53.032;8.960;2023-04-01T06:39:19;0.10;;;0.10;;
61272;SDS011;47150;53.032;8.960;2023-04-01T06:44:54;0.30;;;0.17;;
61272;SDS011;47150;53.032;8.960;2023-04-01T06:50:15;0.20;;;0.20;;
61272;SDS011;47150;53.032;8.960;2023-04-01T06:53:07;0.40;;;0.40;;
61272;SDS011;47150;53.032;8.960;2023-04-01T06:55:50;0.20;;;0.20;;
61272;SDS011;47150;53.032;8.960;2023-04-01T06:58:27;0.20;;;0.20;;
61272;SDS011;47150;53.032;8.960;2023-04-01T07:00:59;0.20;;;0.20;;
61272;SDS011;47150;53.032;8.960;2023-04-01T07:06:59;0.10;;;0.10;;
61272;SDS011;47150;53.032;8.960;2023-04-01T07:09:19;0.10;;;0.10;;
61272;SDS011;47150;53.032;8.960;2023-04-01T07:11:47;0.10;;;0.10;;
61272;SDS011;47150;53.032;8.960;2023-04-01T07:16:51;0.10;;;0.10;;
61272;SDS011;47150;53.032;8.960;2023-04-01T07:19:25;0.20;;;0.20;;
61272;SDS011;47150;53.032;8.960;2023-04-01T07:22:14;0.10;;;0.10;;
61272;SDS011;47150;53.032;8.960;2023-04-01T07:24:45;0.10;;;0.10;;
61272;SDS011;47150;53.032;8.960;2023-04-01T07:27:12;0.10;;;0.10;;
61272;SDS011;47150;53.032;8.960;2023-04-01T07:29:38;0.20;;;0.20;;
61272;SDS011;47150;53.032;8.960;2023-04-01T07:37:11;0.10;;;0.10;;
61272;SDS011;47150;53.032;8.960;2023-04-01T07:42:28;0.10;;;0.10;;
61272;SDS011;47150;53.032;8.960;2023-04-01T07:56:27;0.10;;;0.10;;
61272;SDS011;47150;53.032;8.960;2023-04-01T08:07:06;0.10;;;0.10;;
61272;SDS011;47150;53.032;8.960;2023-04-01T08:09:37;0.10;;;0.10;;
61272;SDS011;47150;53.032;8.960;2023-04-01T08:15:12;0.10;;;0.10;;
61272;SDS011;47150;53.032;8.960;2023-04-01T08:20:37;0.10;;;0.10;;
61272;SDS011;47150;53.032;8.960;2023-04-01T08:25:44;0.10;;;0.10;;
61272;SDS011;47150;53.032;8.960;2023-04-01T08:28:27;0.20;;;0.20;;
61272;SDS011;47150;53.032;8.960;2023-04-01T08:33:38;0.10;;;0.10;;
61272;SDS011;47150;53.032;8.960;2023-04-01T08:36:13;0.10;;;0.10;;
61272;SDS011;47150;53.032;8.960;2023-04-01T08:46:50;0.30;;;0.30;;
61272;SDS011;47150;53.032;8.960;2023-04-01T08:49:34;0.10;;;0.10;;
61272;SDS011;47150;53.032;8.960;2023-04-01T09:03:37;0.10;;;0.10;;
61272;SDS011;47150;53.032;8.960;2023-04-01T09:23:25;0.10;;;0.10;;
61272;SDS011;47150;53.032;8.960;2023-04-01T09:36:45;0.50;;;0.50;;
61272;SDS011;47150;53.032;8.960;2023-04-01T09:50:20;0.10;;;0.10;;
61272;SDS011;47150;53.032;8.960;2023-04-01T10:15:06;0.10;;;0.10;;
61272;SDS011;47150;53.032;8.960;2023-04-01T10:33:57;0.20;;;0.20;;
61272;SDS011;47150;53.032;8.960;2023-04-01T10:39:29;0.20;;;0.20;;
61272;SDS011;47150;53.032;8.960;2023-04-01T10:48:27;0.20;;;0.20;;
61272;SDS011;47150;53.032;8.960;2023-04-01T10:54:12;0.20;;;0.20;;
61272;SDS011;47150;53.032;8.960;2023-04-01T10:56:47;0.20;;;0.20;;
61272;SDS011;47150;53.032;8.960;2023-04-01T10:59:36;0.10;;;0.10;;
61272;SDS011;47150;53.032;8.960;2023-04-01T11:38:13;0.30;;;0.30;;
61272;SDS011;47150;53.032;8.960;2023-04-01T11:43:36;0.67;;;0.40;;
61272;SDS011;47150;53.032;8.960;2023-04-01T11:46:12;1.37;;;0.40;;
61272;SDS011;47150;53.032;8.960;2023-04-01T11:51:34;0.13;;;0.13;;
61272;SDS011;47150;53.032;8.960;2023-04-01T12:25:03;0.30;;;0.30;;
61272;SDS011;47150;53.032;8.960;2023-04-01T12:27:42;0.30;;;0.30;;
61272;SDS011;47150;53.032;8.960;2023-04-01T12:30:25;0.40;;;0.40;;
61272;SDS011;47150;53.032;8.960;2023-04-01T12:33:04;0.53;;;0.50;;
61272;SDS011;47150;53.032;8.960;2023-04-01T12:41:18;0.30;;;0.30;;
61272;SDS011;47150;53.032;8.960;2023-04-01T12:44:00;0.40;;;0.40;;
61272;SDS011;47150;53.032;8.960;2023-04-01T13:27:33;0.60;;;0.30;;
61272;SDS011;47150;53.032;8.960;2023-04-01T13:30:24;0.33;;;0.33;;
61272;SDS011;47150;53.032;8.960;2023-04-01T13:43:36;0.60;;;0.60;;
61272;SDS011;47150;53.032;8.960;2023-04-01T13:49:33;0.40;;;0.40;;
61272;SDS011;47150;53.032;8.960;2023-04-01T13:57:34;0.10;;;0.10;;
61272;SDS011;47150;53.032;8.960;2023-04-01T14:48:03;0.40;;;0.40;;
61272;SDS011;47150;53.032;8.960;2023-04-01T14:50:43;0.80;;;0.80;;
61272;SDS011;47150;53.032;8.960;2023-04-01T14:53:13;0.47;;;0.47;;
61272;SDS011;47150;53.032;8.960;2023-04-01T14:55:53;0.23;;;0.23;;
61272;SDS011;47150;53.032;8.960;2023-04-01T14:58:38;0.50;;;0.50;;
61272;SDS011;47150;53.032;8.960;2023-04-01T15:01:13;1.23;;;1.13;;
61272;SDS011;47150;53.032;8.960;2023-04-01T15:09:43;0.60;;;0.60;;
61272;SDS011;47150;53.032;8.960;2023-04-01T15:12:17;0.83;;;0.83;;
61272;SDS011;47150;53.032;8.960;2023-04-01T15:17:48;0.57;;;0.57;;
61272;SDS011;47150;53.032;8.960;2023-04-01T15:38:06;1.67;;;1.60;;
61272;SDS011;47150;53.032;8.960;2023-04-01T15:40:53;0.27;;;0.27;;
61272;SDS011;47150;53.032;8.960;2023-04-01T15:45:58;0.30;;;0.30;;
61272;SDS011;47150;53.032;8.960;2023-04-01T15:56:43;0.33;;;0.33;;
61272;SDS011;47150;53.032;8.960;2023-04-01T15:59:25;0.80;;;0.53;;
61272;SDS011;47150;53.032;8.960;2023-04-01T16:02:18;0.73;;;0.73;;
61272;SDS011;47150;53.032;8.960;2023-04-01T16:12:44;0.80;;;0.80;;
61272;SDS011;47150;53.032;8.960;2023-04-01T16:21:06;0.70;;;0.70;;
61272;SDS011;47150;53.032;8.960;2023-04-01T16:23:39;1.00;;;1.00;;
61272;SDS011;47150;53.032;8.960;2023-04-01T16:28:44;2.00;;;0.97;;
61272;SDS011;47150;53.032;8.960;2023-04-01T16:31:30;0.47;;;0.47;;
61272;SDS011;47150;53.032;8.960;2023-04-01T16:47:36;0.93;;;0.77;;
61272;SDS011;47150;53.032;8.960;2023-04-01T16:50:23;0.90;;;0.60;;
61272;SDS011;47150;53.032;8.960;2023-04-01T16:53:00;0.80;;;0.80;;
61272;SDS011;47150;53.032;8.960;2023-04-01T16:58:07;0.67;;;0.67;;
61272;SDS011;47150;53.032;8.960;2023-04-01T17:00:44;0.43;;;0.43;;
61272;SDS011;47150;53.032;8.960;2023-04-01T17:06:19;0.60;;;0.60;;
61272;SDS011;47150;53.032;8.960;2023-04-01T17:15:17;2.33;;;0.70;;
61272;SDS011;47150;53.032;8.960;2023-04-01T17:20:43;0.67;;;0.67;;
61272;SDS011;47150;53.032;8.960;2023-04-01T17:28:40;1.30;;;1.03;;
61272;SDS011;47150;53.032;8.960;2023-04-01T17:31:26;0.90;;;0.90;;
61272;SDS011;47150;53.032;8.960;2023-04-01T17:48:24;0.50;;;0.50;;
61272;SDS011;47150;53.032;8.960;2023-04-01T17:51:02;1.63;;;1.53;;
61272;SDS011;47150;53.032;8.960;2023-04-01T17:56:45;0.90;;;0.90;;
61272;SDS011;47150;53.032;8.960;2023-04-01T18:02:20;0.60;;;0.60;;
61272;SDS011;47150;53.032;8.960;2023-04-01T18:05:02;0.57;;;0.57;;
61272;SDS011;47150;53.032;8.960;2023-04-01T18:07:51;2.80;;;2.03;;
61272;SDS011;47150;53.032;8.960;2023-04-01T18:21:50;1.20;;;1.17;;
61272;SDS011;47150;53.032;8.960;2023-04-01T18:27:02;1.57;;;1.47;;
61272;SDS011;47150;53.032;8.960;2023-04-01T18:29:40;1.10;;;1.00;;
61272;SDS011;47150;53.032;8.960;2023-04-01T18:32:14;0.60;;;0.60;;
61272;SDS011;47150;53.032;8.960;2023-04-01T18:34:50;0.50;;;0.50;;
61272;SDS011;47150;53.032;8.960;2023-04-01T18:37:24;0.37;;;0.37;;
61272;SDS011;47150;53.032;8.960;2023-04-01T18:43:01;0.80;;;0.80;;
61272;SDS011;47150;53.032;8.960;2023-04-01T18:45:45;0.40;;;0.40;;
61272;SDS011;47150;53.032;8.960;2023-04-01T18:56:31;1.33;;;1.20;;
61272;SDS011;47150;53.032;8.960;2023-04-01T18:59:52;2.27;;;1.50;;
61272;SDS011;47150;53.032;8.960;2023-04-01T19:02:19;1.83;;;1.73;;
61272;SDS011;47150;53.032;8.960;2023-04-01T19:05:13;2.10;;;1.60;;
61272;SDS011;47150;53.032;8.960;2023-04-01T19:07:48;1.10;;;1.03;;
61272;SDS011;47150;53.032;8.960;2023-04-01T19:20:45;1.20;;;1.03;;
61272;SDS011;47150;53.032;8.960;2023-04-01T19:25:54;0.30;;;0.30;;
61272;SDS011;47150;53.032;8.960;2023-04-01T19:33:25;0.40;;;0.40;;
61272;SDS011;47150;53.032;8.960;2023-04-01T19:36:09;1.10;;;1.10;;
61272;SDS011;47150;53.032;8.960;2023-04-01T19:38:47;2.00;;;1.63;;
61272;SDS011;47150;53.032;8.960;2023-04-01T19:46:30;2.70;;;1.00;;
61272;SDS011;47150;53.032;8.960;2023-04-01T19:51:43;0.60;;;0.60;;
61272;SDS011;47150;53.032;8.960;2023-04-01T19:59:54;1.27;;;1.17;;
61272;SDS011;47150;53.032;8.960;2023-04-01T20:02:33;3.40;;;2.43;;
61272;SDS011;47150;53.032;8.960;2023-04-01T20:05:15;2.07;;;1.30;;
61272;SDS011;47150;53.032;8.960;2023-04-01T20:11:07;1.30;;;1.20;;
61272;SDS011;47150;53.032;8.960;2023-04-01T20:14:01;3.67;;;2.27;;
61272;SDS011;47150;53.032;8.960;2023-04-01T20:17:17;1.57;;;1.47;;
61272;SDS011;47150;53.032;8.960;2023-04-01T20:19:43;1.30;;;0.87;;
61272;SDS011;47150;53.032;8.960;2023-04-01T20:22:19;1.20;;;1.20;;
61272;SDS011;47150;53.032;8.960;2023-04-01T20:24:47;3.97;;;2.03;;
61272;SDS011;47150;53.032;8.960;2023-04-01T20:32:37;1.63;;;1.53;;
61272;SDS011;47150;53.032;8.960;2023-04-01T20:41:14;2.53;;;1.27;;
61272;SDS011;47150;53.032;8.960;2023-04-01T20:49:30;0.40;;;0.40;;
61272;SDS011;47150;53.032;8.960;2023-04-01T21:06:27;1.47;;;1.37;;
61272;SDS011;47150;53.032;8.960;2023-04-01T21:17:38;2.73;;;1.43;;
61272;SDS011;47150;53.032;8.960;2023-04-01T21:22:47;1.30;;;1.20;;
61272;SDS011;47150;53.032;8.960;2023-04-01T21:28:10;3.23;;;1.60;;
61272;SDS011;47150;53.032;8.960;2023-04-01T21:39:36;0.77;;;0.77;;
61272;SDS011;47150;53.032;8.960;2023-04-01T21:42:32;0.80;;;0.80;;
61272;SDS011;47150;53.032;8.960;2023-04-01T22:10:03;1.50;;;0.87;;
61272;SDS011;47150;53.032;8.960;2023-04-01T22:21:18;2.03;;;1.83;;
61272;SDS011;47150;53.032;8.960;2023-04-01T22:24:07;1.10;;;1.00;;
61272;SDS011;47150;53.032;8.960;2023-04-01T22:27:04;1.10;;;1.00;;
61272;SDS011;47150;53.032;8.960;2023-04-01T22:37:45;0.50;;;0.50;;
61272;SDS011;47150;53.032;8.960;2023-04-01T22:43:36;1.10;;;1.10;;
61272;SDS011;47150;53.032;8.960;2023-04-01T22:46:13;0.70;;;0.70;;
61272;SDS011;47150;53.032;8.960;2023-04-01T22:54:40;0.50;;;0.50;;
61272;SDS011;47150;53.032;8.960;2023-04-01T22:57:16;0.83;;;0.83;;
61272;SDS011;47150;53.032;8.960;2023-04-01T23:00:00;0.97;;;0.97;;
61272;SDS011;47150;53.032;8.960;2023-04-01T23:02:37;3.27;;;1.90;;
61272;SDS011;47150;53.032;8.960;2023-04-01T23:05:09;0.50;;;0.50;;
61272;SDS011;47150;53.032;8.960;2023-04-01T23:07:54;0.50;;;0.50;;
61272;SDS011;47150;53.032;8.960;2023-04-01T23:10:42;1.53;;;1.43;;
61272;SDS011;47150;53.032;8.960;2023-04-01T23:13:18;0.60;;;0.60;;
61272;SDS011;47150;53.032;8.960;2023-04-01T23:15:50;0.50;;;0.50;;
61272;SDS011;47150;53.032;8.960;2023-04-01T23:23:30;0.40;;;0.40;;
61272;SDS011;47150;53.032;8.960;2023-04-01T23:26:12;2.57;;;0.80;;
61272;SDS011;47150;53.032;8.960;2023-04-01T23:33:55;5.50;;;1.27;;
61272;SDS011;47150;53.032;8.960;2023-04-01T23:36:22;0.87;;;0.87;;
61272;SDS011;47150;53.032;8.960;2023-04-01T23:38:48;0.40;;;0.40;;
61272;SDS011;47150;53.032;8.960;2023-04-01T23:41:28;1.00;;;1.00;;
61272;SDS011;47150;53.032;8.960;2023-04-01T23:44:00;0.57;;;0.57;;
61272;SDS011;47150;53.032;8.960;2023-04-01T23:46:29;1.13;;;0.90;;
61272;SDS011;47150;53.032;8.960;2023-04-01T23:48:57;0.60;;;0.60;;
61272;SDS011;47150;53.032;8.960;2023-04-01T23:51:26;1.60;;;0.70;;
61272;SDS011;47150;53.032;8.960;2023-04-01T23:53:56;0.70;;;0.70;;
61272;SDS011;47150;53.032;8.960;2023-04-01T23:56:41;0.87;;;0.60;;
61272;SDS011;47150;53.032;8.960;2023-04-01T23:59:17;11.60;;;0.77;;
